Nearby METAR Reports

 

K9MN - St Mary Hospital, Minnesota, USA
Distance from station: SW 3mi, 4km
Updated: 01/29/2020 1:56am
Overcast
Overcast
 Wind from calm
Wind: Calm
Temperature: 18°F , -8°C
Dew Point: 16°F , -9°C
Humidity: 93%
Barometer: 30.15 inHg , 1021 hPa
Clouds: Overcast
Visibility: 10 miles , 16 km
Cloud details: Overcast 800 ft
2020/01/29 07:56 K9MN 290756Z AUTO 00000KT 10SM OVC008 M08/M09 A3015 RMK AO1 T10761094
KRST - Rochester, Minnesota, USA
Distance from station: SSW 10mi, 16km
Updated: 01/29/2020 1:54am
Overcast
Overcast
 Wind from NE
Wind: NE 3 mph , 6 km/h
Temperature: 18°F , -8°C
Dew Point: 12°F , -11°C
Humidity: 79%
Barometer: 30.14 inHg , 1020.7 hPa
Clouds: Overcast
Visibility: 10 miles , 16 km
Cloud details: Overcast 600 ft
2020/01/29 07:54 KRST 290754Z AUTO 05003KT 10SM OVC006 M08/M11 A3014 RMK AO2 SLP229 T10831106
 
KTOB - Dodge Center, Minnesota, USA
Distance from station: W 19mi, 30km
Updated: 01/29/2020 1:56am
Overcast
Overcast
 Wind from calm
Wind: Calm
Temperature: 16°F , -9°C
Dew Point: 14°F , -10°C
Humidity: 93%
Barometer: 30.13 inHg , 1020.3 hPa
Clouds: Overcast
Visibility: 10 miles , 16 km
Cloud details: Overcast 700 ft
2020/01/29 07:56 KTOB 290756Z AUTO 00000KT 10SM OVC007 M09/M10 A3013 RMK AO2 PWINO
KFKA - Preston, Minnesota, USA
Distance from station: SSE 28mi, 45km
Updated: 01/29/2020 1:57am
Overcast
Overcast
 Wind from NE
Wind: NE 5 mph , 7 km/h
Temperature: 16°F , -9°C
Wind Chill: 8°F , -13°C
Dew Point: 14°F , -10°C
Humidity: 93%
Barometer: 30.14 inHg , 1020.7 hPa
Clouds: Overcast
Visibility: 7 miles , 11 km
Cloud details: Overcast 800 ft
2020/01/29 07:57 KFKA 290757Z AUTO 04004KT 7SM OVC008 M09/M10 A3014 RMK AO2
 
KAUM - Austin Muni, Minnesota, USA
Distance from station: SW 35mi, 57km
Updated: 01/29/2020 1:55am
Overcast
Overcast
 Wind from E
Wind: E 6 mph , 9 km/h
Temperature: 19°F , -7°C
Wind Chill: 11°F , -12°C
Dew Point: 18°F , -8°C
Humidity: 93%
Barometer: 30.13 inHg , 1020.3 hPa
Clouds: Overcast
Visibility: 10 miles , 16 km
Cloud details: Overcast 1000 ft
2020/01/29 07:55 KAUM 290755Z AUTO 08005KT 10SM OVC010 M07/M08 A3013 RMK AO2
KONA - Winona Muni, Minnesota, USA
Distance from station: E 37mi, 59km
Updated: 01/29/2020 1:56am
Overcast
Overcast
 Wind from calm
Wind: Calm
Temperature: 19°F , -7°C
Dew Point: 16°F , -9°C
Humidity: 86%
Barometer: 30.21 inHg , 1023 hPa
Clouds: Overcast
Visibility: 10 miles , 16 km
Cloud details: Overcast 1200 ft
2020/01/29 07:56 KONA 290756Z AUTO 00000KT 10SM OVC012 M07/M09 A3021 RMK AO2
 
KRGK - Red Wing, Minnesota, USA
Distance from station: N 38mi, 61km
Updated: 01/29/2020 1:56am
Overcast
Overcast
 Wind from calm
Wind: Calm
Temperature: 18°F , -8°C
Dew Point: 14°F , -10°C
Humidity: 86%
Barometer: 30.18 inHg , 1022 hPa
Clouds: Overcast
Visibility: 10 miles , 16 km
Cloud details: Overcast 1300 ft
2020/01/29 07:56 KRGK 290756Z AUTO 00000KT 10SM OVC013 M08/M10 A3018 RMK AO2
KOWA - Owatonna, Minnesota, USA
Distance from station: W 41mi, 65km
Updated: 01/29/2020 2:13am
Overcast
Overcast
 Wind from calm
Wind: Calm
Temperature: 18°F , -8°C
Dew Point: 14°F , -10°C
Humidity: 86%
Barometer: 30.15 inHg , 1021 hPa
Clouds: Overcast
Visibility: 10 miles , 16 km
Cloud details: Overcast 900 ft
2020/01/29 08:13 KOWA 290813Z AUTO 00000KT 10SM OVC009 M08/M10 A3015 RMK AO2
 
KSYN - Stanton, Minnesota, USA
Distance from station: NW 42mi, 68km
Updated: 01/29/2020 1:55am
Overcast
Overcast
 Wind from E
Wind: E 3 mph , 6 km/h
Temperature: 18°F , -8°C
Dew Point: 14°F , -10°C
Humidity: 86%
Barometer: 30.16 inHg , 1021.3 hPa
Clouds: Overcast
Visibility: 10 miles , 16 km
Cloud details: Overcast 1100 ft
2020/01/29 07:55 KSYN 290755Z AUTO 10003KT 10SM OVC011 M08/M10 A3016 RMK AO2 T10811097
KFBL - Faribault Muni, Minnesota, USA
Distance from station: WNW 48mi, 77km
Updated: 01/29/2020 1:56am
Clear
Clear
 Wind from calm
Wind: Calm
Temperature: 18°F , -8°C
Dew Point: 16°F , -9°C
Humidity: 93%
Barometer: 30.16 inHg , 1021.3 hPa
Clouds: Clear
Visibility: 10 miles , 16 km
2020/01/29 07:56 KFBL 290756Z AUTO 00000KT 10SM CLR M08/M09 A3016 RMK AO2